CNE weather

Fremont County Airport
CaƱon City, Colorado, United States

Public forecast

Using degrees Fahrenheit for public forecast. Weather courtesy of forecast.io.

METAR (pilot weather report)

Retrieved UTC (0 seconds ago):

TAF (pilot weather forecast)

Closest forecast is Butts AAF (Fort Carson) Air Field, 22.2 nm (41.2 km) NE. Retrieved 2019/07/21 21:15 UTC (0 seconds ago):

TAF TAF KFCS 212109Z 2121/2303 09009KT 9999 VCTS SCT100CB QNH3021INS TEMPO 2121/2201 VRB35G45KT 8000 TSRAGR BKN050CB BECMG 2202/2203 07006KT 9999 NSW BKN060 QNH3034INS BECMG 2205/2206 VRB06KT 8000 BR BKN030 QNH3045INS BECMG 2208/2209 VRB06KT 6000 BR BKN010 QNH3040INS BECMG 2218/2219 18009KT 9999 NSW SCT030 QNH3035INS TX29/2121Z TN15/2212Z